Terminal Aerodrome Forecast
Issued by NWS

Home | Current Version | Previous Version | Graphics & Text | Print | Product List | Glossary On
Versions: 1 2 3 4 5 6 7 8 9 10 11 12 13 14 15 16 17 18 19
000
FTUS43 KBIS 191129
TAFMOT
TAF
KMOT 191129Z 1912/2012 23012KT P6SM SCT100 SCT250
     FM192100 23005KT P6SM FEW200
     FM200500 21009KT P6SM SCT250
     FM201000 24012G20KT P6SM SCT250=

USA.gov is the U.S. government's official web portal to all federal, state and local government web resources and services.